Armstrong, Iowa
Current Conditions -  °F | °C
As of 11:52 PM on Sunday 23 Nov 2014 (Local Time) from KEST Reporting Station
Overcast Overcast  
Wind Chill: 13°   Ceiling: 1700
Heat Index: 28°   Visibility: 10mi
Dew Point: 22°   Wind: 25mph
Humidity: 78%   Direction: 330°NNW
Pressure: 29.42"   Gusts: 35mph
Location:  43.4°N, 94.48°W
Report Text: KEST 240552Z AUTO 33022G30KT 10SM OVC017 M02/M06 A2942 RMK AO2 PK WND 33033/0533 SLP972 T10221056 10039 21022 401061022 56005
Loading
Personal Weather Stations






























Interactive Weather Map New forecast layout! Learn more

10-Day Weather Forecast

Advertisements
Track Severe Weather on mobile